createdAt,value
2017-08-28T00:02:17.452Z,14.60
2017-08-28T00:04:51.033Z,15.75
2017-08-28T00:07:24.550Z,14.73
2017-08-28T00:09:58.298Z,17.33
2017-08-28T00:12:31.830Z,14.10
2017-08-28T00:15:05.378Z,13.02
2017-08-28T00:17:39.015Z,11.65
2017-08-28T00:20:12.630Z,11.50
2017-08-28T00:22:46.138Z,12.93
2017-08-28T00:25:19.691Z,9.82
2017-08-28T00:27:53.238Z,16.15
2017-08-28T00:30:26.787Z,16.77
2017-08-28T00:33:00.452Z,10.43
2017-08-28T00:35:34.011Z,20.45
2017-08-28T00:38:07.521Z,9.27
2017-08-28T00:40:41.082Z,13.95
2017-08-28T00:43:15.596Z,10.95
2017-08-28T00:45:49.342Z,10.55
2017-08-28T00:48:22.941Z,14.52
2017-08-28T00:50:56.446Z,17.65
2017-08-28T00:53:30.865Z,9.50
2017-08-28T00:56:04.553Z,14.02
2017-08-28T00:58:38.083Z,10.52
2017-08-28T01:01:11.673Z,9.95
2017-08-28T01:03:45.342Z,10.48
2017-08-28T01:06:19.059Z,12.43
2017-08-28T01:08:52.663Z,11.45
2017-08-28T01:11:26.254Z,8.50
2017-08-28T01:13:59.785Z,9.48
2017-08-28T01:16:33.495Z,12.18
2017-08-28T01:19:07.092Z,11.55
2017-08-28T01:21:40.584Z,11.02
2017-08-28T01:24:14.152Z,16.98
2017-08-28T01:26:47.722Z,16.70
2017-08-28T01:29:21.467Z,12.18
2017-08-28T01:31:58.492Z,8.18
2017-08-28T01:34:32.066Z,6.90
2017-08-28T01:37:05.636Z,10.55
2017-08-28T01:39:39.352Z,10.68
2017-08-28T01:42:12.850Z,7.95
2017-08-28T01:44:46.423Z,9.00
2017-08-28T01:47:20.012Z,11.43
2017-08-28T01:49:53.701Z,16.27
2017-08-28T01:52:27.245Z,11.48
2017-08-28T01:55:00.755Z,10.77
2017-08-28T01:57:34.295Z,9.75
2017-08-28T02:00:07.949Z,11.23
2017-08-28T02:02:41.548Z,11.60
2017-08-28T02:05:15.143Z,11.43
2017-08-28T02:07:48.844Z,8.13
2017-08-28T02:10:22.529Z,9.65
2017-08-28T02:12:56.042Z,15.77
2017-08-28T02:15:29.606Z,10.43
2017-08-28T02:18:03.226Z,7.43
2017-08-28T02:20:36.928Z,12.20
2017-08-28T02:23:10.425Z,13.13
2017-08-28T02:25:44.060Z,12.25
2017-08-28T02:28:17.612Z,7.70
2017-08-28T02:30:51.136Z,14.55
2017-08-28T02:33:24.788Z,11.23
2017-08-28T02:35:58.288Z,8.70
2017-08-28T02:38:31.809Z,11.32
2017-08-28T02:41:05.335Z,12.23
2017-08-28T02:43:38.984Z,6.65
2017-08-28T02:46:12.636Z,15.52
2017-08-28T02:48:46.208Z,11.88
2017-08-28T02:51:19.717Z,9.52
2017-08-28T02:53:53.301Z,11.52
2017-08-28T02:56:26.852Z,8.60
2017-08-28T02:59:00.597Z,11.70
2017-08-28T03:01:34.168Z,13.38
2017-08-28T03:04:07.698Z,11.45
2017-08-28T03:06:41.227Z,8.05
2017-08-28T03:09:14.800Z,7.50
2017-08-28T03:11:48.514Z,9.80
2017-08-28T03:14:22.057Z,11.55
2017-08-28T03:16:55.790Z,10.88
2017-08-28T03:19:29.435Z,9.43
2017-08-28T03:22:03.075Z,8.45
2017-08-28T03:24:36.832Z,10.57
2017-08-28T03:27:10.381Z,8.85
2017-08-28T03:29:44.768Z,8.45
2017-08-28T03:35:17.860Z,10.93
2017-08-28T03:37:51.413Z,11.12
2017-08-28T03:40:24.909Z,7.55
2017-08-28T03:42:58.437Z,10.02
2017-08-28T03:45:31.944Z,9.68
2017-08-28T03:48:05.495Z,6.20
2017-08-28T03:50:39.146Z,12.40
2017-08-28T03:53:12.642Z,8.98
2017-08-28T03:55:46.215Z,11.68
2017-08-28T03:58:19.824Z,10.82
2017-08-28T04:00:53.371Z,7.85
2017-08-28T04:03:27.089Z,9.95
2017-08-28T04:06:02.635Z,9.60
2017-08-28T04:08:36.157Z,8.32
2017-08-28T04:11:09.656Z,7.72
2017-08-28T04:13:43.221Z,11.85
2017-08-28T04:16:16.872Z,11.27
2017-08-28T04:18:50.376Z,10.43
2017-08-28T04:21:23.958Z,10.88
2017-08-28T04:23:57.499Z,11.25
2017-08-28T04:26:31.794Z,9.57
2017-08-28T04:29:05.437Z,12.60
2017-08-28T04:31:39.046Z,9.18
2017-08-28T04:34:12.818Z,10.95
2017-08-28T04:36:46.347Z,9.80
2017-08-28T04:39:20.108Z,8.80
2017-08-28T04:41:53.663Z,9.45
2017-08-28T04:44:27.208Z,9.90
2017-08-28T04:47:07.172Z,8.00
2017-08-28T04:49:40.710Z,9.45
2017-08-28T04:52:14.340Z,12.00
2017-08-28T04:54:47.912Z,9.20
2017-08-28T04:57:21.522Z,9.30
2017-08-28T04:59:55.119Z,8.40
2017-08-28T05:02:28.677Z,10.07
2017-08-28T05:05:02.393Z,8.00
2017-08-28T05:07:36.049Z,10.32
2017-08-28T05:10:09.628Z,8.70
2017-08-28T05:12:43.200Z,15.70
2017-08-28T05:15:16.726Z,6.97
2017-08-28T05:17:50.332Z,10.10
2017-08-28T05:20:23.939Z,9.65
2017-08-28T05:22:57.520Z,9.38
2017-08-28T05:25:31.110Z,7.68
2017-08-28T05:28:04.768Z,9.00
2017-08-28T05:30:38.345Z,11.65
2017-08-28T05:33:11.844Z,7.65
2017-08-28T05:35:45.444Z,13.30
2017-08-28T05:38:18.967Z,21.48
2017-08-28T05:40:52.649Z,22.87
2017-08-28T05:43:26.308Z,19.42
2017-08-28T05:45:59.888Z,24.63
2017-08-28T05:48:33.489Z,19.80
2017-08-28T05:51:07.268Z,21.70
2017-08-28T05:53:40.813Z,20.30
2017-08-28T05:56:15.163Z,22.52
2017-08-28T05:58:48.672Z,15.95
2017-08-28T06:01:23.284Z,11.35
2017-08-28T06:03:57.026Z,20.08
2017-08-28T06:06:30.524Z,16.23
2017-08-28T06:09:04.079Z,15.38
2017-08-28T06:11:37.682Z,13.85
2017-08-28T06:14:11.395Z,16.23
2017-08-28T06:16:44.897Z,17.40
2017-08-28T06:19:18.412Z,12.05
2017-08-28T06:21:52.708Z,9.88
2017-08-28T06:24:26.249Z,18.70
2017-08-28T06:26:59.747Z,16.80
2017-08-28T06:29:33.326Z,16.45
2017-08-28T06:32:06.918Z,23.80
2017-08-28T06:34:40.468Z,27.40
2017-08-28T06:37:14.001Z,16.08
2017-08-28T06:39:47.710Z,15.23
2017-08-28T06:42:21.277Z,19.55
2017-08-28T06:44:54.790Z,12.25
2017-08-28T06:47:28.460Z,17.70
2017-08-28T06:50:02.106Z,11.12
2017-08-28T06:52:35.665Z,8.88
2017-08-28T06:55:09.211Z,12.13
2017-08-28T06:57:42.794Z,10.38
2017-08-28T07:00:16.428Z,11.25
2017-08-28T07:02:50.009Z,12.37
2017-08-28T07:05:23.521Z,14.02
2017-08-28T07:07:57.069Z,31.10
2017-08-28T07:10:30.737Z,9.35
2017-08-28T07:13:04.308Z,10.68
2017-08-28T07:15:37.831Z,9.90
2017-08-28T07:18:11.412Z,14.18
2017-08-28T07:20:44.944Z,7.35
2017-08-28T07:23:18.532Z,11.15
2017-08-28T07:25:52.090Z,12.82
2017-08-28T07:28:25.583Z,14.87
2017-08-28T07:30:59.146Z,10.55
2017-08-28T07:33:32.818Z,11.10
2017-08-28T07:36:06.526Z,7.35
2017-08-28T07:38:40.025Z,14.95
2017-08-28T07:41:13.543Z,9.32
2017-08-28T07:43:47.243Z,10.98
2017-08-28T07:46:20.955Z,13.65
2017-08-28T07:48:54.624Z,10.25
2017-08-28T07:51:28.185Z,8.50
2017-08-28T07:54:01.774Z,17.65
2017-08-28T07:56:35.437Z,7.32
2017-08-28T07:59:09.015Z,18.75
2017-08-28T08:01:42.565Z,8.13
2017-08-28T08:04:16.131Z,10.43
2017-08-28T08:06:49.834Z,8.40
2017-08-28T08:09:23.482Z,12.93
2017-08-28T08:11:57.071Z,11.70
2017-08-28T08:14:30.588Z,14.65
2017-08-28T08:17:04.099Z,15.15
2017-08-28T08:19:37.792Z,10.77
2017-08-28T08:22:11.293Z,10.40
2017-08-28T08:24:45.608Z,16.55
2017-08-28T08:27:19.112Z,9.23
2017-08-28T08:29:52.776Z,16.25
2017-08-28T08:32:26.383Z,14.43
2017-08-28T08:34:59.964Z,16.58
2017-08-28T08:37:33.516Z,15.45
2017-08-28T08:40:07.176Z,15.45
2017-08-28T08:42:40.739Z,11.30
2017-08-28T08:45:14.313Z,13.40
2017-08-28T08:47:47.849Z,11.32
2017-08-28T08:50:21.393Z,12.43
2017-08-28T08:52:55.047Z,14.55
2017-08-28T08:55:28.686Z,9.77
2017-08-28T08:58:02.238Z,8.65
2017-08-28T09:00:35.752Z,11.77
2017-08-28T09:03:09.581Z,8.75
2017-08-28T09:05:43.083Z,10.95
2017-08-28T09:08:16.660Z,13.98
2017-08-28T09:10:50.216Z,18.00
2017-08-28T09:13:23.872Z,13.45
2017-08-28T09:15:57.395Z,7.50
2017-08-28T09:18:31.012Z,12.30
2017-08-28T09:21:04.521Z,9.30
2017-08-28T09:23:38.541Z,9.27
2017-08-28T09:26:12.263Z,15.38
2017-08-28T09:28:45.800Z,18.35
2017-08-28T09:31:19.349Z,7.87
2017-08-28T09:33:52.889Z,11.85
2017-08-28T09:36:26.397Z,15.95
2017-08-28T09:38:59.934Z,11.50
2017-08-28T09:41:34.320Z,8.10
2017-08-28T09:44:07.977Z,11.45
2017-08-28T09:46:41.508Z,9.68
2017-08-28T09:49:15.113Z,10.65
2017-08-28T09:51:48.672Z,11.98
2017-08-28T09:54:22.201Z,13.38
2017-08-28T09:56:55.765Z,12.88
2017-08-28T09:59:29.309Z,16.48
2017-08-28T10:02:02.829Z,11.20
2017-08-28T10:04:36.365Z,15.25
2017-08-28T10:07:10.042Z,12.13
2017-08-28T10:09:43.648Z,8.77
2017-08-28T10:12:17.178Z,17.00
2017-08-28T10:14:50.840Z,9.70
2017-08-28T10:17:24.429Z,10.88
2017-08-28T10:19:58.004Z,19.58
2017-08-28T10:22:31.578Z,13.95
2017-08-28T10:25:05.231Z,10.95
2017-08-28T10:27:38.786Z,10.13
2017-08-28T10:30:12.383Z,14.00
2017-08-28T10:32:46.137Z,11.85
2017-08-28T10:35:19.700Z,11.32
2017-08-28T10:37:53.354Z,17.25
2017-08-28T10:40:26.905Z,16.60
2017-08-28T10:43:00.480Z,15.30
2017-08-28T10:45:34.151Z,17.83
2017-08-28T10:48:07.736Z,18.77
2017-08-28T10:50:41.250Z,15.55
2017-08-28T10:53:16.565Z,15.82
2017-08-28T10:55:50.237Z,16.48
2017-08-28T10:58:23.931Z,19.10
2017-08-28T11:00:57.481Z,9.32
2017-08-28T11:03:31.025Z,11.07
2017-08-28T11:06:04.742Z,9.18
2017-08-28T11:08:38.541Z,6.57
2017-08-28T11:11:12.059Z,12.93
2017-08-28T11:13:45.766Z,10.38
2017-08-28T11:16:19.452Z,11.40
2017-08-28T11:18:53.067Z,15.75
2017-08-28T11:21:26.688Z,10.02
2017-08-28T11:24:00.410Z,10.35
2017-08-28T11:26:34.084Z,20.67
2017-08-28T11:29:07.683Z,15.63
2017-08-28T11:31:41.315Z,13.10
2017-08-28T11:34:14.974Z,11.57
2017-08-28T11:36:48.578Z,12.82
2017-08-28T11:39:22.221Z,10.65
2017-08-28T11:41:55.879Z,12.07
2017-08-28T11:44:29.455Z,10.82
2017-08-28T11:47:03.131Z,11.18
2017-08-28T11:49:36.788Z,8.15
2017-08-28T11:52:10.489Z,15.20
2017-08-28T11:54:43.994Z,13.18
2017-08-28T11:57:17.712Z,12.90
2017-08-28T11:59:51.316Z,13.88
2017-08-28T12:02:25.013Z,11.27
2017-08-28T12:04:58.625Z,12.55
2017-08-28T12:07:32.202Z,12.40
2017-08-28T12:10:06.390Z,14.23
2017-08-28T12:12:40.025Z,14.27
2017-08-28T12:15:13.751Z,14.18
2017-08-28T12:17:47.303Z,17.42
2017-08-28T12:20:21.724Z,11.10
2017-08-28T12:22:55.301Z,9.02
2017-08-28T12:25:28.956Z,12.63
2017-08-28T12:28:02.596Z,13.95
2017-08-28T12:30:36.383Z,10.50
2017-08-28T12:33:10.085Z,12.73
2017-08-28T12:35:43.647Z,13.90
2017-08-28T12:38:17.216Z,15.20
2017-08-28T12:40:50.840Z,9.38
2017-08-28T12:43:24.356Z,18.85
2017-08-28T12:45:57.872Z,12.95
2017-08-28T12:48:31.413Z,15.10
2017-08-28T12:51:05.082Z,13.07
2017-08-28T12:53:38.598Z,11.23
2017-08-28T12:56:12.290Z,10.93
2017-08-28T12:58:46.089Z,14.27
2017-08-28T13:01:20.764Z,13.62
2017-08-28T13:03:55.425Z,13.20
2017-08-28T13:06:29.048Z,14.80
2017-08-28T13:09:02.653Z,11.05
2017-08-28T13:11:36.406Z,17.52
2017-08-28T13:14:11.234Z,15.90
2017-08-28T13:16:45.077Z,9.98
2017-08-28T13:19:18.633Z,12.18
2017-08-28T13:21:52.188Z,12.95
2017-08-28T13:24:25.723Z,17.55
2017-08-28T13:26:59.510Z,13.27
2017-08-28T13:29:33.280Z,11.20
2017-08-28T13:32:07.021Z,15.70
2017-08-28T13:34:40.879Z,14.77
2017-08-28T13:37:14.440Z,9.50
2017-08-28T13:39:48.159Z,14.20
2017-08-28T13:42:21.858Z,9.48
2017-08-28T13:44:57.156Z,10.75
2017-08-28T13:47:30.914Z,12.55
2017-08-28T13:50:04.604Z,13.52
2017-08-28T13:52:38.377Z,10.75
2017-08-28T13:55:12.863Z,15.07
2017-08-28T13:57:46.482Z,16.73
2017-08-28T14:00:20.218Z,20.80
2017-08-28T14:02:53.983Z,17.45
2017-08-28T14:05:27.895Z,12.13
2017-08-28T14:08:03.336Z,13.45
2017-08-28T14:10:37.019Z,11.27
2017-08-28T14:13:10.778Z,12.63
2017-08-28T14:15:44.447Z,11.18
2017-08-28T14:18:17.984Z,17.02
2017-08-28T14:20:51.622Z,14.02
2017-08-28T14:23:25.199Z,15.05
2017-08-28T14:25:58.749Z,19.17
2017-08-28T14:28:32.612Z,13.70
2017-08-28T14:31:06.260Z,26.08
2017-08-28T14:33:39.848Z,15.55
2017-08-28T14:36:14.532Z,14.15
2017-08-28T14:38:48.098Z,18.62
2017-08-28T14:41:21.872Z,12.77
2017-08-28T14:43:55.426Z,12.15
2017-08-28T14:46:29.073Z,12.75
2017-08-28T14:49:02.860Z,14.43
2017-08-28T14:51:36.714Z,14.75
2017-08-28T14:54:10.376Z,12.90
2017-08-28T14:56:44.079Z,24.30
2017-08-28T14:59:17.798Z,15.10
2017-08-28T15:01:51.554Z,16.80
2017-08-28T15:04:25.125Z,13.85
2017-08-28T15:06:58.792Z,16.17
2017-08-28T15:09:32.594Z,13.57
2017-08-28T15:12:06.375Z,12.60
2017-08-28T15:14:40.096Z,14.38
2017-08-28T15:17:13.763Z,12.95
2017-08-28T15:19:47.448Z,16.77
2017-08-28T15:22:22.156Z,15.38
2017-08-28T15:24:56.060Z,11.02
2017-08-28T15:27:29.826Z,15.73
2017-08-28T15:30:03.366Z,12.20
2017-08-28T15:32:37.012Z,16.30
2017-08-28T15:35:10.529Z,16.20
2017-08-28T15:37:44.308Z,14.77
2017-08-28T15:40:18.064Z,17.48
2017-08-28T15:42:51.796Z,16.15
2017-08-28T15:45:25.508Z,20.27
2017-08-28T15:47:59.233Z,12.32
2017-08-28T15:50:32.925Z,11.40
2017-08-28T15:53:06.574Z,19.35
2017-08-28T15:55:40.134Z,13.23
2017-08-28T15:58:13.844Z,14.35
2017-08-28T16:00:47.608Z,12.57
2017-08-28T16:03:21.289Z,16.73
2017-08-28T16:05:54.952Z,18.70
2017-08-28T16:08:28.485Z,12.88
2017-08-28T16:11:02.308Z,13.15
2017-08-28T16:13:35.869Z,13.18
2017-08-28T16:16:09.557Z,11.98
2017-08-28T16:18:43.249Z,13.50
2017-08-28T16:21:16.787Z,15.63
2017-08-28T16:23:50.461Z,12.25
2017-08-28T16:26:24.111Z,13.32
2017-08-28T16:28:58.643Z,16.90
2017-08-28T16:31:32.219Z,18.55
2017-08-28T16:34:06.010Z,13.43
2017-08-28T16:36:39.768Z,13.00
2017-08-28T16:39:13.484Z,15.10
2017-08-28T16:41:47.051Z,14.23
2017-08-28T16:44:20.657Z,17.15
2017-08-28T16:46:54.270Z,13.23
2017-08-28T16:49:28.014Z,21.80
2017-08-28T16:52:01.807Z,13.40
2017-08-28T16:54:35.368Z,15.68
2017-08-28T16:57:08.933Z,14.25
2017-08-28T16:59:42.713Z,17.37
2017-08-28T17:02:16.265Z,18.25
2017-08-28T17:04:49.989Z,14.45
2017-08-28T17:07:23.582Z,15.50
2017-08-28T17:09:57.195Z,16.77
2017-08-28T17:12:31.021Z,14.27
2017-08-28T17:15:04.640Z,12.27
2017-08-28T17:17:38.304Z,11.35
2017-08-28T17:20:11.982Z,12.50
2017-08-28T17:22:46.593Z,15.13
2017-08-28T17:25:20.274Z,16.10
2017-08-28T17:27:54.029Z,14.35
2017-08-28T17:30:27.737Z,14.63
2017-08-28T17:33:01.439Z,20.58
2017-08-28T17:35:34.996Z,12.45
2017-08-28T17:38:08.637Z,16.73
2017-08-28T17:40:43.105Z,17.10
2017-08-28T17:43:16.671Z,15.43
2017-08-28T17:45:50.367Z,15.95
2017-08-28T17:48:24.080Z,15.57
2017-08-28T17:50:57.794Z,16.92
2017-08-28T17:53:31.484Z,21.55
2017-08-28T17:56:05.430Z,17.00
2017-08-28T17:58:39.069Z,14.55
2017-08-28T18:01:12.573Z,13.52
2017-08-28T18:03:46.298Z,16.20
2017-08-28T18:06:19.872Z,13.40
2017-08-28T18:08:53.620Z,15.23
2017-08-28T18:11:27.256Z,20.40
2017-08-28T18:14:01.036Z,21.48
2017-08-28T18:16:34.637Z,20.27
2017-08-28T18:19:08.393Z,19.92
2017-08-28T18:21:41.939Z,15.55
2017-08-28T18:24:15.619Z,22.25
2017-08-28T18:26:49.338Z,17.15
2017-08-28T18:29:23.012Z,17.02
2017-08-28T18:31:56.659Z,14.38
2017-08-28T18:34:30.212Z,15.70
2017-08-28T18:37:03.778Z,15.27
2017-08-28T18:39:37.485Z,15.70
2017-08-28T18:42:11.065Z,17.52
2017-08-28T18:44:44.756Z,14.07
2017-08-28T18:47:18.472Z,30.67
2017-08-28T18:49:52.289Z,15.48
2017-08-28T18:52:26.047Z,14.82
2017-08-28T18:54:59.717Z,14.85
2017-08-28T18:57:33.416Z,17.25
2017-08-28T19:00:06.989Z,13.73
2017-08-28T19:02:40.653Z,17.20
2017-08-28T19:05:14.276Z,14.57
2017-08-28T19:07:47.937Z,14.85
2017-08-28T19:10:21.613Z,17.77
2017-08-28T19:12:55.376Z,16.67
2017-08-28T19:15:29.187Z,20.00
2017-08-28T19:18:02.973Z,18.02
2017-08-28T19:20:36.815Z,17.15
2017-08-28T19:23:10.541Z,19.00
2017-08-28T19:25:44.145Z,17.58
2017-08-28T19:28:17.763Z,23.42
2017-08-28T19:30:51.410Z,30.92
2017-08-28T19:33:25.899Z,27.25
2017-08-28T19:35:59.613Z,27.95
2017-08-28T19:38:33.139Z,39.42
2017-08-28T19:45:41.167Z,34.60
2017-08-28T19:48:14.866Z,31.23
2017-08-28T19:50:48.427Z,24.45
2017-08-28T19:53:22.088Z,25.20
2017-08-28T19:55:55.783Z,25.40
2017-08-28T19:58:29.358Z,28.17
2017-08-28T20:01:03.004Z,41.30
2017-08-28T20:03:36.717Z,28.52
2017-08-28T20:06:10.493Z,32.35
2017-08-28T20:08:44.308Z,29.80
2017-08-28T20:11:18.009Z,29.45
2017-08-28T20:13:51.662Z,23.98
2017-08-28T20:16:25.393Z,31.15
2017-08-28T20:18:59.036Z,42.00
2017-08-28T20:21:32.675Z,55.92
2017-08-28T20:24:06.284Z,47.42
2017-08-28T20:26:39.862Z,45.65
2017-08-28T20:29:13.521Z,56.28
2017-08-28T20:31:47.114Z,41.97
2017-08-28T20:34:20.684Z,41.37
2017-08-28T20:36:54.289Z,31.27
2017-08-28T20:39:28.069Z,26.20
2017-08-28T20:42:01.645Z,33.33
2017-08-28T20:44:35.200Z,21.80
2017-08-28T20:47:08.710Z,28.00
2017-08-28T20:49:42.372Z,24.10
2017-08-28T20:52:16.036Z,22.23
2017-08-28T20:54:49.583Z,30.12
2017-08-28T20:57:23.170Z,21.40
2017-08-28T20:59:56.718Z,18.80
2017-08-28T21:02:30.406Z,24.67
2017-08-28T21:05:03.963Z,22.77
2017-08-28T21:07:37.566Z,20.12
2017-08-28T21:10:11.135Z,22.10
2017-08-28T21:12:44.914Z,17.23
2017-08-28T21:15:18.470Z,22.67
2017-08-28T21:17:52.075Z,32.13
2017-08-28T21:20:25.697Z,24.08
2017-08-28T21:22:59.357Z,25.08
2017-08-28T21:25:33.033Z,26.62
2017-08-28T21:28:06.551Z,21.08
2017-08-28T21:30:40.079Z,29.25
2017-08-28T21:33:13.679Z,24.15
2017-08-28T21:35:47.385Z,18.30
2017-08-28T21:38:21.155Z,20.48
2017-08-28T21:40:54.733Z,17.62
2017-08-28T21:43:28.440Z,14.85
2017-08-28T21:46:02.129Z,15.90
2017-08-28T21:48:35.693Z,19.40
2017-08-28T21:51:09.294Z,23.23
2017-08-28T21:53:42.854Z,18.52
2017-08-28T21:56:16.545Z,16.10
2017-08-28T21:58:50.208Z,21.58
2017-08-28T22:01:23.807Z,17.90
2017-08-28T22:03:58.108Z,20.25
2017-08-28T22:06:31.815Z,16.45
2017-08-28T22:09:05.647Z,19.52
2017-08-28T22:11:40.326Z,15.85
2017-08-28T22:14:14.399Z,19.12
2017-08-28T22:16:48.017Z,22.85
2017-08-28T22:19:21.823Z,17.60
2017-08-28T22:21:55.603Z,17.77
2017-08-28T22:24:29.400Z,14.57
2017-08-28T22:27:03.284Z,14.90
2017-08-28T22:29:37.209Z,18.17
2017-08-28T22:32:10.949Z,16.15
2017-08-28T22:34:44.723Z,30.67
2017-08-28T22:37:18.844Z,15.82
2017-08-28T22:39:52.694Z,16.85
2017-08-28T22:42:27.902Z,13.02
2017-08-28T22:45:01.640Z,15.85
2017-08-28T22:47:35.382Z,16.70
2017-08-28T22:50:09.178Z,12.37
2017-08-28T22:52:42.954Z,15.23
2017-08-28T22:55:16.700Z,15.90
2017-08-28T22:57:50.578Z,17.42
2017-08-28T23:00:24.459Z,19.83
2017-08-28T23:02:58.239Z,22.13
2017-08-28T23:05:31.977Z,16.67
2017-08-28T23:08:05.681Z,17.10
2017-08-28T23:10:39.413Z,17.15
2017-08-28T23:13:13.203Z,16.35
2017-08-28T23:15:47.297Z,16.45
2017-08-28T23:18:21.034Z,19.48
2017-08-28T23:20:55.241Z,20.62
2017-08-28T23:23:29.728Z,22.45
2017-08-28T23:26:03.439Z,21.98
2017-08-28T23:28:37.230Z,24.83
2017-08-28T23:31:11.260Z,16.48
2017-08-28T23:33:46.224Z,19.75
2017-08-28T23:36:19.968Z,23.17
2017-08-28T23:38:53.700Z,23.92
2017-08-28T23:41:27.506Z,18.52
2017-08-28T23:44:01.411Z,16.92
2017-08-28T23:46:35.821Z,15.45
2017-08-28T23:49:09.414Z,18.23
2017-08-28T23:51:43.086Z,12.48
2017-08-28T23:54:16.873Z,17.08
2017-08-28T23:56:50.686Z,13.50
2017-08-28T23:59:24.447Z,14.65
